Mansfield, United Kingdom
Current Conditions -  °F | °C
As of 12:20 PM on Monday 26 Jan 2015 (Local Time) from EGCN Reporting Station
Broken Clouds Broken Clouds  
Wind Chill: 39°   Ceiling: 3300
Heat Index: 46°   Visibility: 6mi
Dew Point: 37°   Wind: 20mph
Humidity: 71%   Direction: 280°W
Pressure: 30.18"   Gusts: NA
Location:  53.18°N, 1.18°W
Report Text: EGCN 261220Z 28017KT 9999 SCT028 BKN033 08/03 Q1022
Loading
Personal Weather Stations






























Interactive Weather Map New forecast layout! Learn more

10-Day Weather Forecast

Advertisements
Track Severe Weather on mobile